Time;durP1;ratioP1;P1;durP2;ratioP2;P2;SDS_P1;SDS_P2;PMS_P1;PMS_P2;Temp;Humidity;BMP_temperature;BMP_pressure;BME280_temperature;BME280_humidity;BME280_pressure;Samples;Min_cycle;Max_cycle;Signal;HPM_P1;HPM_P2
2022/11/22 00:02:21;;;;;;;24.70;13.77;;;4.40;99.90;;;;;;4919987;29;20071;-82
2022/11/22 00:04:47;;;;;;;22.83;12.15;;;4.40;99.90;;;;;;4952014;29;20499;-82
2022/11/22 00:07:13;;;;;;;20.88;11.48;;;4.40;99.90;;;;;;4935886;29;20105;-83
2022/11/22 00:09:38;;;;;;;22.15;11.35;;;4.40;99.90;;;;;;4920189;29;21044;-82
2022/11/22 00:12:04;;;;;;;19.23;10.98;;;4.40;99.90;;;;;;4919897;29;20488;-82
2022/11/22 00:14:31;;;;;;;22.65;12.45;;;4.40;99.90;;;;;;4935266;29;20109;-82
2022/11/22 00:16:56;;;;;;;21.85;12.82;;;5.60;99.90;;;;;;4935247;29;20063;-82
2022/11/22 00:19:22;;;;;;;21.58;11.38;;;4.40;99.90;;;;;;4920285;29;20122;-82
2022/11/22 00:21:48;;;;;;;17.40;10.65;;;5.10;99.90;;;;;;4913663;29;20039;-82
2022/11/22 00:24:14;;;;;;;19.85;11.05;;;4.40;99.90;;;;;;4921451;29;20047;-82
2022/11/22 00:26:39;;;;;;;20.30;10.88;;;4.40;99.90;;;;;;4918632;29;20039;-82
2022/11/22 00:29:05;;;;;;;22.00;12.60;;;4.40;99.90;;;;;;4920474;29;20043;-82
2022/11/22 00:31:31;;;;;;;19.40;11.13;;;5.50;99.90;;;;;;4918751;29;20135;-82
2022/11/22 00:33:57;;;;;;;18.23;10.60;;;4.40;99.90;;;;;;4938733;29;20562;-82
2022/11/22 00:36:22;;;;;;;20.67;11.18;;;5.30;99.90;;;;;;4941715;29;20047;-82
2022/11/22 00:38:49;;;;;;;20.95;10.73;;;4.40;99.90;;;;;;4936490;29;20054;-82
2022/11/22 00:41:14;;;;;;;19.98;10.25;;;4.80;99.90;;;;;;4950393;29;20408;-82
2022/11/22 00:43:40;;;;;;;21.30;10.95;;;4.50;99.90;;;;;;4952656;28;20043;-81
2022/11/22 00:46:06;;;;;;;17.83;10.75;;;5.40;99.90;;;;;;4939162;29;20535;-82
2022/11/22 00:48:32;;;;;;;18.63;10.48;;;4.70;99.90;;;;;;4938999;29;20381;-82
2022/11/22 00:50:58;;;;;;;16.20;10.43;;;4.60;99.90;;;;;;4929965;29;20042;-82
2022/11/22 00:53:24;;;;;;;17.50;10.45;;;4.50;99.90;;;;;;4954231;29;20043;-82
2022/11/22 00:55:50;;;;;;;16.25;9.77;;;4.50;99.90;;;;;;4922527;29;20039;-82
2022/11/22 00:58:15;;;;;;;18.88;9.82;;;4.50;99.90;;;;;;4922619;29;20077;-82
2022/11/22 01:00:41;;;;;;;16.45;10.45;;;5.90;99.90;;;;;;4923134;29;20055;-82
2022/11/22 01:03:11;;;;;;;18.05;10.27;;;4.50;99.90;;;;;;4922845;29;20134;-82
2022/11/22 01:05:37;;;;;;;18.10;10.13;;;4.80;99.90;;;;;;4953733;29;20050;-82
2022/11/22 01:08:03;;;;;;;21.23;11.15;;;4.60;99.90;;;;;;4921989;29;20047;-82
2022/11/22 01:10:28;;;;;;;20.52;11.40;;;4.60;99.90;;;;;;4953795;29;20043;-82
2022/11/22 01:12:56;;;;;;;17.52;10.48;;;4.50;99.90;;;;;;4899267;29;20093;-82
2022/11/22 01:15:22;;;;;;;16.08;10.25;;;4.60;99.90;;;;;;4938513;29;20051;-82
2022/11/22 01:17:48;;;;;;;16.92;9.68;;;4.60;99.90;;;;;;4954118;29;20563;-82
2022/11/22 01:20:13;;;;;;;20.23;10.10;;;5.00;99.90;;;;;;4938088;29;20093;-82
2022/11/22 01:22:39;;;;;;;19.30;10.25;;;4.60;99.90;;;;;;4921471;29;20043;-82
2022/11/22 01:25:05;;;;;;;16.38;9.48;;;5.70;99.90;;;;;;4921827;29;20035;-82
2022/11/22 01:27:31;;;;;;;14.98;9.90;;;4.50;99.90;;;;;;4938269;29;20693;-82
2022/11/22 01:29:56;;;;;;;16.63;9.45;;;4.60;99.90;;;;;;4922749;29;20039;-82
2022/11/22 01:32:22;;;;;;;17.90;9.73;;;4.70;99.90;;;;;;4937982;29;20510;-81
2022/11/22 01:34:48;;;;;;;18.02;10.32;;;4.70;99.90;;;;;;4938268;29;20039;-82
2022/11/22 01:37:14;;;;;;;20.13;11.10;;;4.60;99.90;;;;;;4937386;29;20051;-82
2022/11/22 01:39:40;;;;;;;18.83;10.68;;;5.20;99.90;;;;;;4922144;29;20047;-82
2022/11/22 01:42:06;;;;;;;20.77;9.88;;;4.60;99.90;;;;;;4921800;29;20113;-82
2022/11/22 01:44:32;;;;;;;15.18;9.40;;;4.60;99.90;;;;;;4938210;29;20477;-82
2022/11/22 01:47:19;;;;;;;18.33;9.05;;;4.70;99.90;;;;;;4922228;29;20047;-82
2022/11/22 01:49:56;;;;;;;20.73;11.23;;;4.60;99.90;;;;;;4938009;29;20098;-82
2022/11/22 01:52:25;;;;;;;20.83;10.23;;;4.60;99.90;;;;;;4953513;29;20039;-82
2022/11/22 01:54:59;;;;;;;14.65;8.85;;;4.70;99.90;;;;;;4952241;28;20043;-82
2022/11/22 01:57:29;;;;;;;15.40;9.38;;;4.70;99.90;;;;;;4937326;29;20047;-82
2022/11/22 01:59:59;;;;;;;16.25;9.52;;;4.70;99.90;;;;;;4953377;29;20050;-82
2022/11/22 02:02:24;;;;;;;18.17;9.32;;;4.70;99.90;;;;;;4953822;29;20086;-82
2022/11/22 02:04:52;;;;;;;15.07;8.35;;;4.70;99.90;;;;;;4937285;29;20094;-82
2022/11/22 02:07:22;;;;;;;15.32;9.30;;;4.70;99.90;;;;;;4953939;29;20081;-82
2022/11/22 02:09:51;;;;;;;22.70;10.63;;;4.70;99.90;;;;;;4937272;29;20043;-82
2022/11/22 02:12:20;;;;;;;17.35;10.38;;;4.70;99.90;;;;;;4947602;29;20575;-82
2022/11/22 02:14:47;;;;;;;14.70;8.60;;;4.70;99.90;;;;;;4936788;29;20051;-82
2022/11/22 02:17:13;;;;;;;14.32;8.68;;;4.70;99.90;;;;;;4927585;29;20071;-82
2022/11/22 02:19:51;;;;;;;16.75;11.18;;;5.50;99.90;;;;;;4895735;29;20032;-82
2022/11/22 02:22:32;;;;;;;21.38;10.20;;;4.80;99.90;;;;;;4926905;29;20740;-82
2022/11/22 02:25:16;;;;;;;14.90;10.00;;;4.80;99.90;;;;;;4909976;29;20508;-82
2022/11/22 02:27:42;;;;;;;17.40;10.63;;;4.70;99.90;;;;;;4912387;29;20050;-81
2022/11/22 02:30:08;;;;;;;19.33;10.60;;;4.70;99.90;;;;;;4903777;29;20039;-81
2022/11/22 02:32:34;;;;;;;19.05;10.00;;;4.70;99.90;;;;;;4911272;29;20103;-81
2022/11/22 02:35:00;;;;;;;23.92;10.80;;;4.80;99.90;;;;;;4910768;29;20126;-81
2022/11/22 02:37:31;;;;;;;17.40;10.82;;;4.80;99.90;;;;;;4910668;29;20382;-81
2022/11/22 02:40:07;;;;;;;17.95;10.57;;;4.80;99.90;;;;;;4926473;29;20094;-81
2022/11/22 02:42:34;;;;;;;17.80;10.27;;;4.80;99.90;;;;;;4925496;29;20047;-81
2022/11/22 02:45:00;;;;;;;18.98;11.20;;;4.80;99.90;;;;;;4927948;29;20047;-81
2022/11/22 02:47:26;;;;;;;18.20;9.95;;;4.90;99.90;;;;;;4913273;29;20039;-81
2022/11/22 02:49:52;;;;;;;18.50;9.77;;;5.90;99.90;;;;;;4909852;29;20563;-81
2022/11/22 02:52:18;;;;;;;19.58;12.10;;;5.10;99.90;;;;;;4910557;29;20043;-81
2022/11/22 02:54:45;;;;;;;16.98;9.88;;;4.80;99.90;;;;;;4909494;29;20036;-82
2022/11/22 02:57:11;;;;;;;18.27;10.57;;;5.90;99.90;;;;;;4896289;29;20147;-81
2022/11/22 02:59:36;;;;;;;20.10;10.27;;;4.80;99.90;;;;;;4910260;29;21051;-81
2022/11/22 03:02:02;;;;;;;22.33;11.02;;;5.10;99.90;;;;;;4909261;29;20182;-82
2022/11/22 03:04:28;;;;;;;20.80;11.38;;;5.00;99.90;;;;;;4893826;29;20047;-81
2022/11/22 03:06:55;;;;;;;21.08;12.07;;;4.90;99.90;;;;;;4911376;29;20496;-81
2022/11/22 03:09:22;;;;;;;20.35;11.25;;;4.90;99.90;;;;;;4909720;29;20055;-82
2022/11/22 03:11:48;;;;;;;18.10;10.13;;;4.80;99.90;;;;;;4907979;29;20040;-81
2022/11/22 03:14:14;;;;;;;20.38;10.55;;;5.30;99.90;;;;;;4908764;29;20195;-81
2022/11/22 03:16:42;;;;;;;20.42;11.27;;;4.90;99.90;;;;;;4914996;29;20063;-82
2022/11/22 03:19:09;;;;;;;17.77;11.85;;;4.90;99.90;;;;;;4891924;29;20062;-81
2022/11/22 03:21:35;;;;;;;20.63;12.15;;;4.90;99.90;;;;;;4915879;29;20432;-81
2022/11/22 03:24:00;;;;;;;16.90;10.57;;;4.90;99.90;;;;;;4908480;29;20091;-81
2022/11/22 03:26:26;;;;;;;16.27;10.88;;;4.90;99.90;;;;;;4916165;29;20086;-81
2022/11/22 03:28:52;;;;;;;17.45;10.00;;;4.90;99.90;;;;;;4885521;29;20040;-83
2022/11/22 03:31:17;;;;;;;19.10;10.15;;;4.90;99.90;;;;;;4916638;29;20095;-82
2022/11/22 03:33:43;;;;;;;18.52;11.32;;;5.00;99.90;;;;;;4915484;29;20036;-81
2022/11/22 03:36:09;;;;;;;17.38;10.88;;;5.00;99.90;;;;;;4899759;29;20047;-82
2022/11/22 03:38:35;;;;;;;18.63;11.25;;;5.50;99.90;;;;;;4900569;29;20493;-82
2022/11/22 03:41:00;;;;;;;19.65;12.10;;;5.00;99.90;;;;;;4916498;29;20043;-82
2022/11/22 03:43:26;;;;;;;19.50;11.77;;;5.00;99.90;;;;;;4916740;29;20102;-82
2022/11/22 03:45:52;;;;;;;19.20;10.88;;;5.10;99.90;;;;;;4900666;29;20493;-82
2022/11/22 03:48:19;;;;;;;17.13;10.50;;;5.60;99.90;;;;;;4900911;29;20080;-82
2022/11/22 03:50:45;;;;;;;19.88;12.13;;;5.10;99.90;;;;;;4916143;29;20061;-82
2022/11/22 03:53:11;;;;;;;18.95;11.73;;;5.20;99.90;;;;;;4916025;29;20054;-82
2022/11/22 03:55:37;;;;;;;18.92;11.23;;;5.10;99.90;;;;;;4900836;29;20436;-82
2022/11/22 03:58:03;;;;;;;19.15;11.35;;;5.10;99.90;;;;;;4900929;29;20075;-82
2022/11/22 04:00:29;;;;;;;21.10;12.07;;;5.10;99.90;;;;;;4900753;29;20048;-82
2022/11/22 04:02:55;;;;;;;19.48;11.23;;;5.10;99.90;;;;;;4911094;29;20059;-82
2022/11/22 04:05:20;;;;;;;29.13;13.05;;;5.10;99.90;;;;;;4917188;29;20044;-82
2022/11/22 04:07:46;;;;;;;21.77;11.90;;;5.10;99.90;;;;;;4916899;29;20043;-82
2022/11/22 04:10:12;;;;;;;18.67;11.23;;;5.10;99.90;;;;;;4885225;29;20492;-82
2022/11/22 04:12:37;;;;;;;19.25;12.05;;;5.10;99.90;;;;;;4901738;29;20134;-82
2022/11/22 04:15:06;;;;;;;21.73;12.20;;;5.20;99.90;;;;;;4888044;29;20063;-82
2022/11/22 04:17:40;;;;;;;22.70;12.27;;;5.20;99.90;;;;;;4912057;29;20184;-82
2022/11/22 04:22:56;;;;;;;21.27;12.35;;;5.20;99.90;;;;;;4935878;29;20436;-82
2022/11/22 04:25:23;;;;;;;22.88;13.27;;;5.20;99.90;;;;;;4916183;29;20039;-82
2022/11/22 04:27:49;;;;;;;19.77;11.48;;;5.30;99.90;;;;;;4921831;29;20040;-82
2022/11/22 04:30:15;;;;;;;21.42;12.07;;;5.30;99.90;;;;;;4918826;29;20054;-82
2022/11/22 04:32:46;;;;;;;21.73;12.68;;;5.30;99.90;;;;;;4914491;29;20091;-82
2022/11/22 04:35:17;;;;;;;21.48;11.90;;;5.30;99.90;;;;;;4898347;29;20055;-82
2022/11/22 04:37:49;;;;;;;21.10;11.00;;;5.30;99.90;;;;;;4915088;29;20054;-82
2022/11/22 04:40:15;;;;;;;25.55;12.77;;;5.40;99.90;;;;;;4930001;29;20074;-82
2022/11/22 04:45:25;;;;;;;21.20;12.40;;;5.40;99.90;;;;;;4915206;29;20126;-82
2022/11/22 04:48:00;;;;;;;26.98;11.57;;;5.50;99.90;;;;;;4913707;29;20518;-82
2022/11/22 04:53:13;;;;;;;22.65;11.18;;;5.50;99.90;;;;;;4927584;29;20107;-82
2022/11/22 04:55:39;;;;;;;21.63;12.13;;;5.50;99.90;;;;;;4912860;29;20127;-82
2022/11/22 04:58:05;;;;;;;20.90;12.00;;;5.50;99.90;;;;;;4912385;29;20941;-82
2022/11/22 05:00:31;;;;;;;20.58;10.52;;;5.50;99.90;;;;;;4929179;29;20090;-82
2022/11/22 05:02:57;;;;;;;22.20;11.55;;;5.60;99.90;;;;;;4897646;29;20046;-82
2022/11/22 05:05:24;;;;;;;24.73;11.95;;;5.60;99.90;;;;;;4911655;29;20118;-82
2022/11/22 05:07:50;;;;;;;19.83;10.70;;;5.60;99.90;;;;;;4910800;29;20050;-82
2022/11/22 05:10:16;;;;;;;19.10;9.98;;;6.50;99.90;;;;;;4912201;29;20039;-82
2022/11/22 05:12:42;;;;;;;19.65;10.20;;;5.60;99.90;;;;;;4911649;29;20040;-82
2022/11/22 05:15:10;;;;;;;17.35;8.65;;;5.60;99.90;;;;;;4900410;29;20055;-82
2022/11/22 05:17:37;;;;;;;20.20;10.27;;;5.60;99.90;;;;;;4946662;29;20047;-82
2022/11/22 05:20:06;;;;;;;19.63;8.73;;;5.60;99.90;;;;;;4955476;29;20047;-82
2022/11/22 05:25:17;;;;;;;17.92;8.57;;;6.80;99.90;;;;;;4941213;29;20047;-82
2022/11/22 05:27:42;;;;;;;21.67;9.75;;;5.60;99.90;;;;;;4923281;29;20126;-82
2022/11/22 05:30:08;;;;;;;20.05;9.07;;;5.60;99.90;;;;;;4954565;28;20050;-82
2022/11/22 05:32:34;;;;;;;12.77;7.03;;;5.60;99.90;;;;;;4938455;29;20094;-82
2022/11/22 05:35:00;;;;;;;18.90;7.93;;;5.60;99.90;;;;;;4937620;29;20046;-83
2022/11/22 05:37:26;;;;;;;17.95;8.80;;;5.50;99.90;;;;;;4921586;29;20055;-83
2022/11/22 05:39:52;;;;;;;19.08;8.70;;;5.90;99.90;;;;;;4954668;29;20054;-83
2022/11/22 05:42:17;;;;;;;15.88;7.93;;;5.50;99.90;;;;;;4939078;29;20039;-82
2022/11/22 05:44:43;;;;;;;16.00;8.10;;;5.50;99.90;;;;;;4937881;29;20039;-83
2022/11/22 05:47:09;;;;;;;21.10;8.93;;;5.40;99.90;;;;;;4922433;29;20117;-82
2022/11/22 05:49:35;;;;;;;19.67;8.27;;;5.40;99.90;;;;;;4922911;29;20043;-82
2022/11/22 05:52:02;;;;;;;16.15;8.27;;;5.40;99.90;;;;;;4936433;29;20456;-82
2022/11/22 05:54:28;;;;;;;14.98;7.80;;;6.20;99.90;;;;;;4935827;29;20058;-82
2022/11/22 05:56:54;;;;;;;18.88;8.85;;;5.30;99.90;;;;;;4938349;29;20190;-82
2022/11/22 05:59:20;;;;;;;14.82;8.05;;;5.30;99.90;;;;;;4946608;29;20039;-82
2022/11/22 06:01:45;;;;;;;19.38;8.77;;;5.30;99.90;;;;;;4922332;29;20038;-82
2022/11/22 06:04:11;;;;;;;19.05;8.00;;;5.20;99.90;;;;;;4937693;29;20526;-82
2022/11/22 06:06:37;;;;;;;22.33;8.07;;;5.20;99.90;;;;;;4937396;29;20043;-83
2022/11/22 06:09:03;;;;;;;23.63;8.13;;;5.20;99.90;;;;;;4937244;29;20050;-82
2022/11/22 06:11:29;;;;;;;17.80;6.35;;;5.10;99.90;;;;;;4953499;28;20074;-83
2022/11/22 06:14:02;;;;;;;18.45;7.03;;;5.10;99.90;;;;;;4937190;29;20489;-82
2022/11/22 06:16:28;;;;;;;16.23;7.00;;;5.10;99.90;;;;;;4953529;29;20065;-82
2022/11/22 06:18:54;;;;;;;11.93;6.45;;;6.00;99.90;;;;;;4952967;29;20071;-83
2022/11/22 06:21:22;;;;;;;17.85;6.50;;;5.00;99.90;;;;;;4936426;29;20050;-80
2022/11/22 06:23:49;;;;;;;16.80;7.35;;;5.00;99.90;;;;;;4952956;28;20039;-80
2022/11/22 06:26:17;;;;;;;17.95;6.50;;;5.00;99.90;;;;;;4919917;29;20054;-81
2022/11/22 06:28:43;;;;;;;11.45;5.95;;;5.10;99.90;;;;;;4943287;29;20051;-81
2022/11/22 06:31:13;;;;;;;18.60;6.25;;;5.00;99.90;;;;;;4937175;29;20046;-81
2022/11/22 06:33:41;;;;;;;18.88;6.63;;;5.00;99.90;;;;;;4952837;29;20546;-81
2022/11/22 06:36:10;;;;;;;11.88;6.00;;;5.90;99.90;;;;;;4952537;29;20043;-81
2022/11/22 06:38:37;;;;;;;14.15;6.97;;;4.90;99.90;;;;;;4936648;29;20039;-80
2022/11/22 06:41:05;;;;;;;17.90;6.50;;;5.10;99.90;;;;;;4936401;29;20043;-81
2022/11/22 06:43:32;;;;;;;16.55;6.20;;;4.90;99.90;;;;;;4951028;29;20816;-79
2022/11/22 06:46:00;;;;;;;14.68;6.00;;;5.70;99.90;;;;;;4920801;29;20105;-81
2022/11/22 06:48:28;;;;;;;13.27;4.82;;;4.90;99.90;;;;;;4936431;29;20053;-80
2022/11/22 06:51:17;;;;;;;16.50;5.80;;;4.90;99.90;;;;;;4952112;29;20057;-81
2022/11/22 06:53:43;;;;;;;14.23;5.47;;;4.80;99.90;;;;;;4934991;29;20042;-80
2022/11/22 06:56:11;;;;;;;13.38;5.82;;;5.30;99.90;;;;;;4920332;29;20043;-81
2022/11/22 06:58:37;;;;;;;15.75;5.90;;;5.00;99.90;;;;;;4952651;29;20035;-81
2022/11/22 07:01:11;;;;;;;14.38;5.32;;;4.80;99.90;;;;;;4921398;29;20098;-81
2022/11/22 07:03:39;;;;;;;16.77;5.30;;;4.80;99.90;;;;;;4936723;29;20395;-80
2022/11/22 07:06:06;;;;;;;17.77;5.45;;;4.90;99.90;;;;;;4936548;29;20031;-81
2022/11/22 07:08:32;;;;;;;16.88;6.00;;;5.40;99.90;;;;;;4935597;29;21962;-80
2022/11/22 07:11:20;;;;;;;12.75;5.25;;;4.90;99.90;;;;;;4935747;29;20094;-81
2022/11/22 07:13:47;;;;;;;15.82;5.30;;;4.80;99.90;;;;;;4939047;29;20089;-80
2022/11/22 07:16:15;;;;;;;16.25;5.88;;;4.80;99.90;;;;;;4952976;29;20062;-81
2022/11/22 07:18:40;;;;;;;16.48;4.82;;;5.40;99.90;;;;;;4952433;29;20062;-81
2022/11/22 07:21:07;;;;;;;15.13;5.55;;;4.80;99.90;;;;;;4937284;29;20039;-81
2022/11/22 07:23:33;;;;;;;16.00;5.30;;;4.80;99.90;;;;;;4936376;29;20039;-81
2022/11/22 07:25:59;;;;;;;14.70;4.72;;;4.80;99.90;;;;;;4936532;29;20087;-80
2022/11/22 07:28:25;;;;;;;16.60;5.03;;;4.70;99.90;;;;;;4936050;29;20051;-81
2022/11/22 07:30:52;;;;;;;14.43;4.75;;;4.80;99.90;;;;;;4952353;29;20157;-82
2022/11/22 07:33:18;;;;;;;16.60;4.18;;;4.80;99.90;;;;;;4935479;29;20050;-82
2022/11/22 07:35:43;;;;;;;12.68;4.00;;;5.20;99.90;;;;;;4952499;29;20411;-81
2022/11/22 07:38:09;;;;;;;21.67;4.15;;;5.90;99.90;;;;;;4952381;29;20043;-81
2022/11/22 07:40:38;;;;;;;11.63;3.50;;;4.70;99.90;;;;;;4919876;29;20043;-81
2022/11/22 07:43:03;;;;;;;18.50;4.35;;;4.80;99.90;;;;;;4936465;29;20098;-82
2022/11/22 07:45:29;;;;;;;12.82;3.70;;;5.30;99.90;;;;;;4936130;29;20488;-81
2022/11/22 07:47:59;;;;;;;17.63;3.47;;;4.70;99.90;;;;;;4935523;29;20087;-84
2022/11/22 07:50:24;;;;;;;17.65;4.05;;;4.80;99.90;;;;;;4944738;29;20511;-82
2022/11/22 07:52:57;;;;;;;9.82;3.88;;;4.80;99.90;;;;;;4936239;29;20055;-86
2022/11/22 07:55:25;;;;;;;15.30;4.38;;;4.80;99.90;;;;;;4956207;29;20126;-84
2022/11/22 07:57:52;;;;;;;13.90;3.90;;;5.10;99.90;;;;;;4940675;29;20051;-82
2022/11/22 08:00:18;;;;;;;15.60;3.30;;;4.90;99.90;;;;;;4939743;29;20035;-86
2022/11/22 08:02:44;;;;;;;13.63;3.50;;;4.90;99.90;;;;;;4940256;29;20047;-83
2022/11/22 08:05:10;;;;;;;14.13;4.18;;;5.00;99.90;;;;;;4941966;29;20039;-82
2022/11/22 08:07:36;;;;;;;15.40;3.45;;;5.10;99.90;;;;;;4942846;29;20065;-83
2022/11/22 08:10:02;;;;;;;17.00;4.15;;;5.00;99.90;;;;;;4926207;29;20039;-83
2022/11/22 08:12:28;;;;;;;13.25;3.38;;;5.10;99.90;;;;;;4930234;29;20042;-84
2022/11/22 08:14:53;;;;;;;17.50;3.45;;;5.20;99.90;;;;;;4938907;29;20136;-80
2022/11/22 08:17:19;;;;;;;14.73;3.60;;;5.20;99.90;;;;;;4924439;29;20055;-78
2022/11/22 08:19:45;;;;;;;13.95;3.85;;;5.20;99.90;;;;;;4937186;29;20072;-81
2022/11/22 08:22:11;;;;;;;15.65;3.88;;;5.20;99.90;;;;;;4938227;29;20043;-83
2022/11/22 08:24:37;;;;;;;10.00;3.17;;;5.20;99.90;;;;;;4938445;29;20484;-82
2022/11/22 08:27:02;;;;;;;12.23;2.92;;;5.20;99.90;;;;;;4954481;29;20050;-82
2022/11/22 08:29:28;;;;;;;15.77;3.10;;;5.20;99.90;;;;;;4930042;29;20035;-82
2022/11/22 08:31:54;;;;;;;19.52;3.95;;;5.40;99.90;;;;;;4923476;29;20063;-81
2022/11/22 08:34:20;;;;;;;9.90;2.97;;;5.20;99.90;;;;;;4936901;29;20391;-81
2022/11/22 08:36:45;;;;;;;13.05;3.33;;;5.20;99.90;;;;;;4940274;29;20179;-82
2022/11/22 08:39:11;;;;;;;12.00;3.50;;;5.30;99.90;;;;;;4939608;29;20098;-82
2022/11/22 08:41:37;;;;;;;10.55;3.13;;;6.30;99.90;;;;;;4923869;29;20036;-83
2022/11/22 08:44:02;;;;;;;15.38;4.30;;;5.30;99.90;;;;;;4922708;29;20039;-82
2022/11/22 08:46:28;;;;;;;14.13;4.07;;;5.30;99.90;;;;;;4924629;29;20050;-82
2022/11/22 08:48:54;;;;;;;11.88;3.60;;;5.30;99.90;;;;;;4921502;28;20042;-82
2022/11/22 08:51:19;;;;;;;17.83;3.92;;;5.30;99.90;;;;;;4922267;29;20046;-83
2022/11/22 08:53:45;;;;;;;8.18;2.58;;;5.60;99.90;;;;;;4936610;29;20146;-82
2022/11/22 08:56:13;;;;;;;15.40;3.92;;;5.40;99.90;;;;;;4938953;29;20047;-83
2022/11/22 08:58:39;;;;;;;13.60;3.75;;;6.30;99.90;;;;;;4938000;29;21607;-81
2022/11/22 09:01:12;;;;;;;9.32;2.78;;;5.50;99.90;;;;;;4938101;29;20093;-82
2022/11/22 09:03:39;;;;;;;12.20;3.40;;;5.50;99.90;;;;;;4953368;28;20460;-84
2022/11/22 09:06:16;;;;;;;12.80;3.08;;;5.50;99.90;;;;;;4931672;29;20042;-82
2022/11/22 09:08:42;;;;;;;17.00;3.78;;;5.50;99.90;;;;;;4938565;29;20045;-82
2022/11/22 09:11:16;;;;;;;11.70;2.90;;;6.00;99.90;;;;;;4938892;29;20046;-82
2022/11/22 09:13:42;;;;;;;11.30;3.40;;;5.60;99.90;;;;;;4938229;29;20061;-82
2022/11/22 09:16:18;;;;;;;9.95;2.85;;;5.60;99.90;;;;;;4953513;28;20530;-82
2022/11/22 09:18:45;;;;;;;12.77;2.97;;;5.70;99.90;;;;;;4946795;29;20061;-82
2022/11/22 09:21:16;;;;;;;17.30;3.20;;;5.70;99.90;;;;;;4938900;29;20090;-82
2022/11/22 09:23:43;;;;;;;12.05;2.90;;;5.80;99.90;;;;;;4938085;29;20051;-82
2022/11/22 09:26:16;;;;;;;8.40;2.67;;;5.90;99.90;;;;;;4954736;29;20043;-83
2022/11/22 09:28:42;;;;;;;14.15;2.80;;;5.80;99.90;;;;;;4937741;29;20082;-82
2022/11/22 09:31:10;;;;;;;13.02;2.30;;;6.00;99.90;;;;;;4937633;29;20058;-82
2022/11/22 09:33:37;;;;;;;10.52;3.10;;;6.00;99.90;;;;;;4929498;29;20047;-83
2022/11/22 09:36:06;;;;;;;12.88;2.65;;;6.10;99.90;;;;;;4953687;29;20649;-84
2022/11/22 09:38:33;;;;;;;14.50;2.55;;;6.10;99.90;;;;;;4953774;28;20078;-83
2022/11/22 09:41:09;;;;;;;13.70;2.28;;;6.10;99.90;;;;;;4953577;29;20047;-84
2022/11/22 09:43:40;;;;;;;12.43;3.47;;;6.10;99.90;;;;;;4937010;29;20031;-83
2022/11/22 09:46:35;;;;;;;9.00;3.05;;;6.10;99.90;;;;;;4952044;29;20047;-79
2022/11/22 09:49:13;;;;;;;9.50;2.70;;;6.20;99.90;;;;;;4935643;29;20047;-81
2022/11/22 09:51:45;;;;;;;10.07;2.67;;;6.50;99.90;;;;;;4935533;29;20043;-80
2022/11/22 09:54:17;;;;;;;11.27;2.90;;;6.80;99.90;;;;;;4950498;29;20146;-80
2022/11/22 09:56:43;;;;;;;10.43;2.80;;;7.10;99.90;;;;;;4949290;29;20047;-80
2022/11/22 09:59:23;;;;;;;13.63;3.05;;;7.20;99.90;;;;;;4935980;29;20035;-80
2022/11/22 10:02:05;;;;;;;9.45;3.40;;;7.00;99.90;;;;;;4952377;29;20372;-80
2022/11/22 10:04:39;;;;;;;9.48;2.67;;;7.70;99.90;;;;;;4943651;29;20392;-80
2022/11/22 10:07:17;;;;;;;8.27;2.33;;;6.80;99.90;;;;;;4948997;29;20400;-80
2022/11/22 10:09:53;;;;;;;13.10;2.20;;;6.80;99.90;;;;;;4951176;29;20078;-80
2022/11/22 10:12:25;;;;;;;13.07;2.40;;;6.80;99.90;;;;;;4950853;28;20082;-80
2022/11/22 10:15:03;;;;;;;11.77;2.97;;;6.80;99.90;;;;;;4951751;29;20043;-80
2022/11/22 10:17:49;;;;;;;10.85;2.90;;;6.90;99.90;;;;;;4948151;29;20082;-80
2022/11/22 10:20:19;;;;;;;10.15;2.35;;;7.00;99.90;;;;;;4949734;29;20046;-81
2022/11/22 10:22:47;;;;;;;11.25;3.58;;;7.10;99.90;;;;;;4934664;29;20130;-80
2022/11/22 10:25:34;;;;;;;13.57;2.80;;;7.10;99.90;;;;;;4935935;29;20047;-80
2022/11/22 10:28:25;;;;;;;8.85;2.70;;;7.10;99.90;;;;;;4928028;29;20047;-80
2022/11/22 10:31:09;;;;;;;14.35;2.38;;;7.10;99.90;;;;;;4933221;28;20163;-80
2022/11/22 10:33:47;;;;;;;9.82;2.75;;;7.10;99.90;;;;;;4934079;29;20399;-80
2022/11/22 10:36:47;;;;;;;10.63;2.63;;;7.10;99.90;;;;;;4952894;28;20150;-80
2022/11/22 10:39:41;;;;;;;14.65;2.30;;;7.30;99.90;;;;;;4932753;29;20094;-80
2022/11/22 10:42:25;;;;;;;6.38;1.52;;;7.50;99.90;;;;;;4934486;29;20461;-80
2022/11/22 10:45:19;;;;;;;8.55;2.50;;;7.50;99.90;;;;;;4926752;29;20054;-80
2022/11/22 10:47:51;;;;;;;7.60;1.65;;;7.40;99.90;;;;;;4941734;29;20631;-79
2022/11/22 10:50:38;;;;;;;9.35;2.25;;;7.30;99.90;;;;;;4942215;29;20082;-80
2022/11/22 10:53:19;;;;;;;6.68;2.25;;;7.30;99.90;;;;;;4930122;29;20039;-79
2022/11/22 10:55:49;;;;;;;8.25;2.50;;;7.20;99.90;;;;;;4949882;28;20093;-79
2022/11/22 10:58:53;;;;;;;9.13;2.25;;;7.30;99.90;;;;;;4933719;29;20077;-80
2022/11/22 11:01:34;;;;;;;7.80;1.90;;;7.20;99.90;;;;;;4948473;29;20531;-80
2022/11/22 11:04:02;;;;;;;6.97;1.65;;;7.20;99.90;;;;;;4933465;29;20035;-79
2022/11/22 11:06:34;;;;;;;8.48;1.73;;;7.20;99.90;;;;;;4950029;29;20361;-80
2022/11/22 11:09:26;;;;;;;6.25;2.10;;;7.20;99.90;;;;;;4935513;29;20071;-80
2022/11/22 11:11:53;;;;;;;6.10;1.75;;;7.20;99.90;;;;;;4931530;29;20051;-80
2022/11/22 11:14:54;;;;;;;5.10;2.00;;;7.20;99.90;;;;;;4917962;29;20047;-79
2022/11/22 11:17:26;;;;;;;7.88;2.10;;;7.30;99.90;;;;;;4918372;29;20448;-79
2022/11/22 11:19:56;;;;;;;9.35;2.20;;;7.30;99.90;;;;;;4926853;29;20035;-79
2022/11/22 11:22:24;;;;;;;7.53;1.92;;;7.40;99.90;;;;;;4941499;28;20495;-80
2022/11/22 11:24:50;;;;;;;8.05;2.20;;;7.30;99.90;;;;;;4949672;29;20047;-79
2022/11/22 11:27:18;;;;;;;5.70;1.75;;;7.30;99.90;;;;;;4948478;28;20051;-79
2022/11/22 11:30:09;;;;;;;8.32;1.98;;;7.40;99.90;;;;;;4932992;29;20050;-79
2022/11/22 11:32:53;;;;;;;6.20;2.10;;;7.40;99.90;;;;;;4949420;29;20054;-80
2022/11/22 11:35:23;;;;;;;6.38;2.13;;;7.60;99.90;;;;;;4954558;29;20062;-82
2022/11/22 11:37:48;;;;;;;6.97;2.42;;;7.80;99.90;;;;;;4935704;29;20404;-82
2022/11/22 11:40:29;;;;;;;8.70;2.30;;;8.00;99.90;;;;;;4934244;29;20042;-82
2022/11/22 11:43:18;;;;;;;6.40;1.80;;;7.80;99.90;;;;;;4935557;29;20031;-82
2022/11/22 11:45:44;;;;;;;7.65;2.17;;;7.80;99.90;;;;;;4951388;29;20579;-81
2022/11/22 11:48:36;;;;;;;7.65;1.80;;;7.70;99.90;;;;;;4935446;29;20070;-81
2022/11/22 11:51:16;;;;;;;7.60;2.47;;;7.60;99.90;;;;;;4950975;29;20089;-81
2022/11/22 11:54:00;;;;;;;7.97;2.05;;;7.50;99.90;;;;;;4953537;29;20054;-80
2022/11/22 11:56:38;;;;;;;4.50;1.40;;;8.20;99.90;;;;;;4930963;29;20043;-80
2022/11/22 11:59:14;;;;;;;8.75;2.05;;;7.50;99.90;;;;;;4937341;29;20043;-80
2022/11/22 12:01:51;;;;;;;5.90;2.13;;;7.40;99.90;;;;;;4964921;28;20143;-82
2022/11/22 12:04:46;;;;;;;9.00;1.73;;;7.40;99.90;;;;;;4956369;29;20038;-83
2022/11/22 12:07:27;;;;;;;5.72;1.92;;;7.40;99.90;;;;;;4947892;29;20081;-82
2022/11/22 12:09:54;;;;;;;8.52;2.13;;;7.40;99.90;;;;;;4952723;29;20097;-82
2022/11/22 12:12:32;;;;;;;9.15;2.03;;;7.40;99.90;;;;;;4911475;29;20047;-84
2022/11/22 12:15:22;;;;;;;8.25;1.88;;;7.30;99.90;;;;;;4950591;29;20058;-84
2022/11/22 12:17:57;;;;;;;6.93;1.77;;;7.30;99.90;;;;;;4951980;28;20069;-84
2022/11/22 12:20:45;;;;;;;4.05;1.63;;;7.30;99.90;;;;;;4951605;28;20043;-84
2022/11/22 12:23:39;;;;;;;4.22;1.50;;;7.20;99.90;;;;;;4935467;29;20054;-83
2022/11/22 12:26:05;;;;;;;6.32;1.70;;;7.30;99.90;;;;;;4935432;29;20098;-83
2022/11/22 12:28:31;;;;;;;4.25;1.40;;;7.30;99.90;;;;;;4934833;29;20602;-83
2022/11/22 12:31:15;;;;;;;11.02;2.08;;;7.20;99.90;;;;;;4935020;29;20031;-83
2022/11/22 12:33:44;;;;;;;7.45;1.70;;;7.30;99.90;;;;;;4934851;29;21099;-83
2022/11/22 12:36:17;;;;;;;8.20;1.80;;;7.30;99.90;;;;;;4935601;29;20043;-83
2022/11/22 12:38:46;;;;;;;7.03;1.95;;;7.30;99.90;;;;;;4936274;29;20484;-83
2022/11/22 12:41:15;;;;;;;5.28;1.33;;;7.30;99.90;;;;;;4938882;29;20053;-83
2022/11/22 12:44:03;;;;;;;3.85;1.33;;;8.00;99.90;;;;;;4931859;29;20547;-84
2022/11/22 12:46:45;;;;;;;6.45;1.70;;;7.30;99.90;;;;;;4940358;29;20122;-84
2022/11/22 12:49:29;;;;;;;5.88;1.77;;;7.30;99.90;;;;;;4955615;29;20047;-83
2022/11/22 12:52:13;;;;;;;5.97;1.67;;;7.30;99.90;;;;;;4939546;29;20125;-83
2022/11/22 12:54:48;;;;;;;6.45;2.08;;;7.40;99.90;;;;;;4937726;29;20118;-83
2022/11/22 12:57:22;;;;;;;6.65;1.63;;;7.30;99.90;;;;;;4937931;29;20051;-83
2022/11/22 13:00:11;;;;;;;6.13;1.55;;;7.30;99.90;;;;;;4930377;29;20044;-83
2022/11/22 13:03:10;;;;;;;6.68;1.60;;;7.30;99.90;;;;;;4954557;29;20035;-83
2022/11/22 13:05:47;;;;;;;7.55;1.80;;;7.30;99.90;;;;;;4937416;29;20035;-83
2022/11/22 13:08:32;;;;;;;6.13;2.00;;;7.30;99.90;;;;;;4929498;29;20043;-83
2022/11/22 13:11:24;;;;;;;4.20;1.65;;;7.70;99.90;;;;;;4938277;29;20054;-83
2022/11/22 13:13:59;;;;;;;7.22;1.77;;;7.30;99.90;;;;;;4937845;29;20035;-83